createdAt,value
2018-12-31T00:00:48.107Z,455.70
2018-12-31T00:03:39.443Z,603.57
2018-12-31T00:06:16.134Z,512.27
2018-12-31T00:08:59.666Z,316.77
2018-12-31T00:11:29.549Z,476.07
2018-12-31T00:14:00.908Z,464.80
2018-12-31T00:16:30.450Z,273.77
2018-12-31T00:19:03.734Z,600.50
2018-12-31T00:21:33.456Z,806.83
2018-12-31T00:24:07.700Z,626.17
2018-12-31T00:26:38.893Z,383.30
2018-12-31T00:29:09.869Z,415.98
2018-12-31T00:31:52.725Z,313.70
2018-12-31T00:34:24.806Z,693.90
2018-12-31T00:36:55.215Z,497.90
2018-12-31T00:39:26.086Z,370.37
2018-12-31T00:41:56.714Z,300.13
2018-12-31T00:44:26.478Z,307.77
2018-12-31T00:46:57.929Z,452.03
2018-12-31T00:49:29.508Z,351.17
2018-12-31T00:51:59.827Z,393.90
2018-12-31T00:54:29.532Z,262.30
2018-12-31T00:56:58.817Z,461.73
2018-12-31T00:59:31.945Z,442.87
2018-12-31T01:02:05.304Z,156.57
2018-12-31T01:04:35.553Z,279.00
2018-12-31T01:07:05.204Z,836.70
2018-12-31T01:09:34.877Z,700.60
2018-12-31T01:12:11.923Z,454.77
2018-12-31T01:14:40.908Z,465.47
2018-12-31T01:17:29.764Z,350.83
2018-12-31T01:19:59.362Z,395.53
2018-12-31T01:22:31.256Z,481.47
2018-12-31T01:25:13.553Z,255.10
2018-12-31T01:27:46.583Z,125.00
2018-12-31T01:30:17.578Z,423.37
2018-12-31T01:32:50.201Z,389.63
2018-12-31T01:35:19.927Z,347.00
2018-12-31T01:37:52.581Z,471.47
2018-12-31T01:40:27.692Z,409.20
2018-12-31T01:42:58.906Z,564.03
2018-12-31T01:45:32.697Z,442.03
2018-12-31T01:48:02.540Z,477.03
2018-12-31T01:50:33.865Z,533.87
2018-12-31T01:53:06.409Z,281.30
2018-12-31T01:55:40.962Z,597.27
2018-12-31T01:58:13.300Z,456.53
2018-12-31T02:00:59.070Z,173.03
2018-12-31T02:03:28.434Z,400.17
2018-12-31T02:06:02.772Z,566.13
2018-12-31T02:08:34.904Z,516.00
2018-12-31T02:11:08.645Z,402.87
2018-12-31T02:13:40.529Z,200.20
2018-12-31T02:16:17.718Z,698.73
2018-12-31T02:18:51.128Z,498.33
2018-12-31T02:21:23.054Z,221.43
2018-12-31T02:23:53.604Z,528.60
2018-12-31T05:42:58.080Z,143.00
2018-12-31T05:45:30.723Z,24.17
2018-12-31T05:47:59.753Z,73.30
2018-12-31T05:50:29.213Z,181.83
2018-12-31T05:52:58.294Z,57.67
2018-12-31T05:55:27.450Z,127.83
2018-12-31T05:57:56.543Z,336.93
2018-12-31T06:00:25.700Z,48.53
2018-12-31T06:02:54.708Z,138.77
2018-12-31T06:05:24.095Z,99.10
2018-12-31T06:07:53.278Z,66.27
2018-12-31T06:10:22.322Z,235.97
2018-12-31T06:12:51.387Z,35.83
2018-12-31T06:15:20.538Z,488.27
2018-12-31T06:17:49.577Z,209.40
2018-12-31T06:20:18.661Z,116.87
2018-12-31T06:22:47.945Z,166.50
2018-12-31T06:25:16.996Z,184.23
2018-12-31T06:27:46.038Z,274.67
2018-12-31T06:30:15.087Z,409.77
2018-12-31T06:32:44.251Z,329.87
2018-12-31T06:35:13.295Z,249.73
2018-12-31T06:37:42.433Z,35.80
2018-12-31T06:40:11.477Z,216.33
2018-12-31T06:42:40.560Z,123.10
2018-12-31T06:45:09.741Z,91.03
2018-12-31T06:47:42.215Z,26.57
2018-12-31T06:50:11.308Z,113.83
2018-12-31T06:52:40.387Z,100.83
2018-12-31T06:55:09.821Z,69.93
2018-12-31T06:57:38.871Z,26.30
2018-12-31T07:00:09.156Z,21.60
2018-12-31T07:02:38.212Z,66.63
2018-12-31T07:05:07.270Z,190.40
2018-12-31T07:07:36.570Z,131.90
2018-12-31T07:10:07.515Z,42.03
2018-12-31T07:12:40.910Z,25.20
2018-12-31T07:15:10.421Z,25.10
2018-12-31T07:17:40.776Z,11.73
2018-12-31T07:20:12.171Z,24.63
2018-12-31T07:22:41.264Z,12.93
2018-12-31T07:25:10.318Z,32.63
2018-12-31T07:27:40.738Z,46.00
2018-12-31T07:30:10.255Z,63.90
2018-12-31T07:32:39.279Z,250.17
2018-12-31T07:35:08.420Z,36.17
2018-12-31T07:37:40.523Z,185.93
2018-12-31T07:40:12.945Z,62.80
2018-12-31T07:42:47.423Z,414.53
2018-12-31T07:45:19.238Z,39.20
2018-12-31T07:47:51.749Z,83.20
2018-12-31T07:50:23.711Z,196.37
2018-12-31T07:52:55.698Z,170.30
2018-12-31T07:55:27.441Z,265.70
2018-12-31T07:57:59.484Z,22.67
2018-12-31T08:00:31.372Z,72.37
2018-12-31T08:03:04.302Z,32.50
2018-12-31T08:05:36.733Z,42.30
2018-12-31T08:08:08.763Z,22.67
2018-12-31T08:10:43.370Z,624.33
2018-12-31T08:13:16.153Z,238.60
2018-12-31T08:15:46.733Z,241.70
2018-12-31T08:18:18.019Z,54.60
2018-12-31T08:20:51.155Z,16.47
2018-12-31T08:23:21.391Z,365.50
2018-12-31T08:25:51.841Z,45.43
2018-12-31T08:28:22.855Z,110.23
2018-12-31T08:30:58.962Z,41.13
2018-12-31T08:33:34.778Z,68.20
2018-12-31T08:36:08.255Z,167.87
2018-12-31T08:38:40.289Z,19.63
2018-12-31T08:41:22.136Z,81.43
2018-12-31T08:43:52.669Z,55.03
2018-12-31T08:46:21.693Z,127.40
2018-12-31T08:48:52.486Z,67.50
2018-12-31T08:51:21.608Z,211.60
2018-12-31T08:53:50.732Z,92.30
2018-12-31T08:56:19.786Z,93.17
2018-12-31T08:58:52.972Z,43.73
2018-12-31T09:01:22.303Z,79.57
2018-12-31T09:03:51.813Z,641.33
2018-12-31T09:06:44.361Z,135.53
2018-12-31T09:09:31.407Z,256.70
2018-12-31T09:12:22.686Z,202.60
2018-12-31T09:15:03.406Z,51.87
2018-12-31T09:17:59.309Z,154.33
2018-12-31T09:21:01.628Z,310.33
2018-12-31T09:23:45.918Z,342.67
2018-12-31T09:26:29.927Z,112.37
2018-12-31T09:29:12.522Z,40.93
2018-12-31T09:31:42.818Z,115.37
2018-12-31T09:34:13.779Z,184.00
2018-12-31T09:36:42.926Z,490.93
2018-12-31T09:39:14.243Z,247.23
2018-12-31T09:41:43.530Z,101.30
2018-12-31T09:44:15.531Z,190.10
2018-12-31T09:46:46.095Z,201.53
2018-12-31T09:49:22.856Z,263.53
2018-12-31T09:52:03.171Z,66.73
2018-12-31T09:54:45.740Z,97.33
2018-12-31T09:57:28.129Z,212.67
2018-12-31T10:00:02.368Z,288.80
2018-12-31T10:02:43.642Z,118.00
2018-12-31T14:01:00.700Z,122.90
2018-12-31T14:03:34.208Z,46.00
2018-12-31T14:06:06.186Z,38.93
2018-12-31T14:08:36.041Z,39.87
2018-12-31T14:11:05.596Z,49.70
2018-12-31T14:13:35.326Z,31.07
2018-12-31T14:16:04.724Z,34.20
2018-12-31T14:18:34.742Z,42.30
2018-12-31T14:21:04.089Z,52.13
2018-12-31T14:23:36.430Z,42.67
2018-12-31T14:26:06.358Z,37.60
2018-12-31T14:28:36.130Z,28.07
2018-12-31T14:31:08.837Z,29.67
2018-12-31T14:33:38.345Z,36.07
2018-12-31T14:36:08.121Z,37.73
2018-12-31T14:38:37.549Z,30.07
2018-12-31T14:41:07.324Z,39.20
2018-12-31T14:43:40.414Z,30.40
2018-12-31T14:46:09.890Z,32.90
2018-12-31T14:48:41.009Z,53.43
2018-12-31T14:51:27.364Z,28.20
2018-12-31T14:53:56.928Z,32.33
2018-12-31T14:56:34.017Z,30.57
2018-12-31T14:59:11.941Z,30.93
2018-12-31T15:01:47.292Z,24.07
2018-12-31T15:04:32.024Z,27.53
2018-12-31T15:07:10.829Z,23.47
2018-12-31T15:09:54.124Z,26.07
2018-12-31T15:12:35.755Z,29.43
2018-12-31T15:15:05.815Z,40.77
2018-12-31T15:17:35.123Z,31.03
2018-12-31T15:20:06.706Z,24.63
2018-12-31T15:22:40.275Z,21.87
2018-12-31T15:25:15.413Z,29.93
2018-12-31T15:27:47.788Z,79.77
2018-12-31T15:30:19.811Z,30.10
2018-12-31T15:32:51.316Z,30.60
2018-12-31T15:35:24.098Z,30.53
2018-12-31T15:37:56.516Z,48.23
2018-12-31T15:40:30.844Z,32.57
2018-12-31T15:43:00.902Z,36.63
2018-12-31T15:45:30.348Z,30.73
2018-12-31T15:48:00.904Z,36.37
2018-12-31T15:50:30.889Z,32.17
2018-12-31T15:53:01.374Z,49.07
2018-12-31T15:55:31.469Z,44.33
2018-12-31T15:58:01.379Z,32.63
2018-12-31T16:00:31.040Z,29.60
2018-12-31T16:03:03.243Z,31.27
2018-12-31T16:06:01.659Z,35.03
2018-12-31T16:08:41.862Z,30.50
2018-12-31T16:11:24.943Z,31.97
2018-12-31T16:13:59.156Z,29.40
2018-12-31T16:16:34.141Z,37.47
2018-12-31T16:19:03.575Z,45.10
2018-12-31T16:21:34.318Z,35.97
2018-12-31T16:24:04.463Z,29.10
2018-12-31T16:26:44.070Z,43.53
2018-12-31T16:29:13.628Z,35.13
2018-12-31T16:31:43.356Z,31.00
2018-12-31T16:34:12.932Z,31.27
2018-12-31T16:36:50.935Z,38.97
2018-12-31T16:39:29.239Z,38.40
2018-12-31T16:42:16.644Z,40.50
2018-12-31T16:44:53.791Z,26.57
2018-12-31T16:47:29.707Z,49.93
2018-12-31T16:50:05.551Z,33.50
2018-12-31T16:52:41.034Z,40.87
2018-12-31T16:55:16.388Z,42.40
2018-12-31T16:57:52.195Z,37.10
2018-12-31T17:00:25.295Z,34.67
2018-12-31T17:02:54.728Z,33.63
2018-12-31T17:05:24.074Z,40.30
2018-12-31T17:07:58.037Z,36.90
2018-12-31T17:10:29.500Z,36.90
2018-12-31T17:13:14.789Z,46.00
2018-12-31T17:15:54.207Z,65.13
2018-12-31T17:18:36.738Z,69.90
2018-12-31T17:21:15.934Z,68.63
2018-12-31T17:23:45.279Z,48.60
2018-12-31T17:26:14.907Z,97.53
2018-12-31T17:28:44.693Z,77.03
2018-12-31T17:31:15.390Z,73.10
2018-12-31T17:33:50.275Z,80.93
2018-12-31T17:36:24.475Z,72.27
2018-12-31T17:38:58.541Z,52.17
2018-12-31T17:41:35.836Z,57.00
2018-12-31T17:44:12.651Z,64.90
2018-12-31T17:46:50.960Z,53.20
2018-12-31T17:49:26.015Z,105.40
2018-12-31T17:52:05.363Z,53.00
2018-12-31T17:54:51.566Z,44.53
2018-12-31T17:57:31.355Z,192.27
2018-12-31T18:00:09.789Z,96.20
2018-12-31T18:02:48.269Z,59.80
2018-12-31T18:05:34.743Z,131.17
2018-12-31T18:08:20.764Z,116.23
2018-12-31T18:11:07.782Z,68.83
2018-12-31T18:13:59.445Z,118.13
2018-12-31T18:16:44.768Z,74.77
2018-12-31T18:19:31.344Z,69.80
2018-12-31T18:22:10.704Z,96.50
2018-12-31T18:24:49.857Z,113.03
2018-12-31T18:27:30.750Z,125.37
2018-12-31T18:30:12.526Z,112.23
2018-12-31T18:33:02.625Z,64.27
2018-12-31T18:35:48.590Z,62.30
2018-12-31T18:38:29.797Z,131.53
2018-12-31T18:41:11.722Z,88.57
2018-12-31T18:43:50.565Z,94.73
2018-12-31T18:46:29.772Z,110.73
2018-12-31T18:49:19.631Z,111.00
2018-12-31T18:52:04.741Z,147.27
2018-12-31T18:54:52.926Z,103.80
2018-12-31T18:57:42.151Z,145.00
2018-12-31T19:00:26.281Z,144.33
2018-12-31T19:03:07.756Z,110.60
2018-12-31T19:05:51.097Z,87.77
2018-12-31T19:08:41.162Z,101.30
2018-12-31T19:11:21.352Z,83.67
2018-12-31T19:14:03.993Z,97.67
2018-12-31T19:16:45.723Z,103.03
2018-12-31T19:19:27.463Z,106.70
2018-12-31T19:22:06.266Z,115.53
2018-12-31T19:24:54.912Z,65.90
2018-12-31T19:27:36.891Z,182.63
2018-12-31T19:30:18.368Z,140.90
2018-12-31T19:32:50.908Z,128.93
2018-12-31T19:35:25.929Z,84.27
2018-12-31T19:38:01.001Z,93.67
2018-12-31T19:40:31.189Z,84.43
2018-12-31T19:43:15.954Z,88.83
2018-12-31T19:46:06.344Z,112.87
2018-12-31T19:48:56.172Z,111.63
2018-12-31T19:51:45.189Z,140.57
2018-12-31T19:54:39.929Z,167.03
2018-12-31T19:57:24.502Z,84.30
2018-12-31T20:00:25.965Z,105.17
2018-12-31T20:02:59.886Z,149.87
2018-12-31T20:05:36.574Z,130.57
2018-12-31T20:08:22.619Z,98.60
2018-12-31T20:11:05.557Z,189.47
2018-12-31T20:13:47.502Z,203.37
2018-12-31T20:16:24.808Z,165.53
2018-12-31T20:19:05.289Z,139.50
2018-12-31T20:21:50.542Z,169.17
2018-12-31T20:24:33.747Z,139.93
2018-12-31T20:27:13.307Z,104.27
2018-12-31T20:29:52.425Z,108.07
2018-12-31T20:32:28.596Z,93.03
2018-12-31T20:35:02.536Z,100.77
2018-12-31T20:37:41.801Z,112.17
2018-12-31T20:40:25.005Z,82.57
2018-12-31T20:43:09.480Z,111.40
2018-12-31T20:45:49.640Z,126.70
2018-12-31T20:48:28.003Z,106.43
2018-12-31T20:51:15.975Z,140.20
2018-12-31T20:53:46.257Z,102.43
2018-12-31T20:56:15.799Z,133.50
2018-12-31T20:58:45.016Z,146.87
2018-12-31T21:01:14.172Z,129.73
2018-12-31T21:03:44.211Z,138.93
2018-12-31T21:06:13.309Z,138.90
2018-12-31T21:08:42.714Z,119.70
2018-12-31T21:11:11.897Z,109.97
2018-12-31T21:13:41.152Z,121.37
2018-12-31T21:16:10.637Z,132.30
2018-12-31T21:18:39.769Z,131.00
2018-12-31T21:21:09.039Z,120.00
2018-12-31T21:23:38.147Z,125.67
2018-12-31T21:26:07.274Z,100.00
2018-12-31T21:28:46.195Z,178.17
2018-12-31T21:31:29.184Z,125.07
2018-12-31T21:34:15.671Z,160.00
2018-12-31T21:36:51.822Z,130.73
2018-12-31T21:39:22.532Z,115.63
2018-12-31T21:42:00.994Z,111.17
2018-12-31T21:44:39.003Z,115.47
2018-12-31T21:47:16.954Z,111.60
2018-12-31T21:49:56.381Z,99.57
2018-12-31T21:52:38.218Z,97.07
2018-12-31T21:55:12.034Z,113.70
2018-12-31T21:57:48.788Z,124.60
2018-12-31T22:00:26.770Z,135.87
2018-12-31T22:03:10.893Z,131.70
2018-12-31T22:05:41.771Z,120.43
2018-12-31T22:08:13.322Z,138.60
2018-12-31T22:10:45.894Z,148.87
2018-12-31T22:13:23.639Z,134.17
2018-12-31T22:15:55.561Z,135.77
2018-12-31T22:18:26.942Z,169.93
2018-12-31T22:20:59.630Z,126.43
2018-12-31T22:23:28.683Z,97.57
2018-12-31T22:26:06.583Z,76.63
2018-12-31T22:28:39.349Z,103.73
2018-12-31T22:31:08.652Z,119.87
2018-12-31T22:33:37.807Z,124.23
2018-12-31T22:36:08.291Z,102.47
2018-12-31T22:38:41.969Z,98.70
2018-12-31T22:41:19.365Z,117.60
2018-12-31T22:43:56.286Z,113.43
2018-12-31T22:46:28.317Z,136.73
2018-12-31T22:49:03.429Z,141.17
2018-12-31T22:51:40.697Z,135.47
2018-12-31T22:54:17.116Z,117.77
2018-12-31T22:56:52.705Z,174.03
2018-12-31T22:59:25.658Z,135.70
2018-12-31T23:01:57.634Z,110.20
2018-12-31T23:04:27.481Z,124.47
2018-12-31T23:07:00.313Z,132.73
2018-12-31T23:09:30.500Z,134.57
2018-12-31T23:12:05.518Z,138.93
2018-12-31T23:14:34.559Z,94.50
2018-12-31T23:17:07.214Z,127.43
2018-12-31T23:20:13.494Z,221.93
2018-12-31T23:22:48.043Z,160.27
2018-12-31T23:25:47.583Z,155.80
2018-12-31T23:28:18.001Z,166.70
2018-12-31T23:30:56.618Z,150.33
2018-12-31T23:34:10.936Z,227.40
2018-12-31T23:37:13.404Z,255.63
2018-12-31T23:39:52.408Z,253.20
2018-12-31T23:42:34.254Z,240.67
2018-12-31T23:45:10.146Z,223.73
2018-12-31T23:48:26.177Z,191.87
2018-12-31T23:51:52.015Z,432.43
2018-12-31T23:54:30.506Z,328.90
2018-12-31T23:57:13.463Z,244.30
2018-12-31T23:59:46.137Z,222.50
